createdAt,value
2018-03-24T00:00:26.838Z,871.87
2018-03-24T00:01:26.821Z,871.85
2018-03-24T00:02:47.805Z,871.85
2018-03-24T00:03:26.787Z,871.88
2018-03-24T00:04:47.779Z,871.79
2018-03-24T00:05:26.763Z,871.77
2018-03-24T00:06:26.749Z,871.82
2018-03-24T00:07:47.726Z,871.84
2018-03-24T00:08:26.704Z,871.80
2018-03-24T00:09:47.692Z,871.76
2018-03-24T00:10:26.676Z,871.78
2018-03-24T00:11:26.656Z,871.81
2018-03-24T00:12:47.642Z,871.75
2018-03-24T00:13:26.624Z,871.72
2018-03-24T00:14:47.604Z,871.74
2018-03-24T00:15:26.585Z,871.77
2018-03-24T00:16:26.569Z,871.81
2018-03-24T00:17:47.551Z,871.80
2018-03-24T00:18:26.533Z,871.75
2018-03-24T00:19:47.518Z,871.73
2018-03-24T00:20:26.517Z,871.74
2018-03-24T00:21:26.488Z,871.74
2018-03-24T00:22:47.482Z,871.69
2018-03-24T00:23:26.449Z,871.68
2018-03-24T00:24:47.435Z,871.67
2018-03-24T00:25:26.415Z,871.69
2018-03-24T00:26:26.397Z,871.66
2018-03-24T00:27:47.389Z,871.64
2018-03-24T00:28:26.365Z,871.66
2018-03-24T00:29:47.347Z,871.64
2018-03-24T00:30:26.329Z,871.65
2018-03-24T00:31:26.318Z,871.63
2018-03-24T00:32:47.300Z,871.67
2018-03-24T00:33:26.282Z,871.64
2018-03-24T00:34:47.268Z,871.66
2018-03-24T00:35:26.246Z,871.65
2018-03-24T00:36:26.230Z,871.60
2018-03-24T00:37:47.214Z,871.53
2018-03-24T00:38:26.196Z,871.57
2018-03-24T00:39:47.183Z,871.57
2018-03-24T00:40:26.157Z,871.56
2018-03-24T00:41:26.149Z,871.49
2018-03-24T00:42:47.134Z,871.53
2018-03-24T00:43:26.111Z,871.58
2018-03-24T00:44:47.096Z,871.56
2018-03-24T00:45:26.075Z,871.52
2018-03-24T00:46:26.053Z,871.52
2018-03-24T00:47:47.050Z,871.53
2018-03-24T00:48:26.027Z,871.49
2018-03-24T00:49:47.010Z,871.47
2018-03-24T00:50:25.990Z,871.48
2018-03-24T00:51:25.974Z,871.49
2018-03-24T00:52:46.958Z,871.42
2018-03-24T00:53:25.938Z,871.42
2018-03-24T00:54:46.922Z,871.41
2018-03-24T00:55:25.903Z,871.39
2018-03-24T00:56:25.889Z,871.39
2018-03-24T00:57:46.872Z,871.37
2018-03-24T00:58:25.849Z,871.35
2018-03-24T00:59:46.839Z,871.36
2018-03-24T01:00:25.820Z,871.37
2018-03-24T01:01:25.801Z,871.38
2018-03-24T01:02:46.787Z,871.33
2018-03-24T01:03:25.769Z,871.35
2018-03-24T01:04:46.756Z,871.32
2018-03-24T01:05:25.738Z,871.25
2018-03-24T01:06:25.719Z,871.26
2018-03-24T01:07:46.703Z,871.24
2018-03-24T01:08:25.691Z,871.27
2018-03-24T01:09:46.668Z,871.24
2018-03-24T01:10:25.656Z,871.17
2018-03-24T01:11:25.627Z,871.21
2018-03-24T01:12:46.613Z,871.16
2018-03-24T01:13:25.591Z,871.14
2018-03-24T01:14:46.573Z,871.18
2018-03-24T01:15:25.562Z,871.11
2018-03-24T01:16:25.541Z,871.10
2018-03-24T01:17:46.531Z,871.12
2018-03-24T01:18:25.507Z,871.05
2018-03-24T01:19:46.496Z,871.09
2018-03-24T01:20:25.477Z,871.00
2018-03-24T01:21:25.460Z,870.98
2018-03-24T01:22:46.446Z,870.99
2018-03-24T01:23:25.424Z,870.98
2018-03-24T01:24:46.410Z,870.98
2018-03-24T01:25:25.392Z,870.91
2018-03-24T01:26:25.373Z,870.90
2018-03-24T01:27:46.360Z,870.91
2018-03-24T01:28:25.340Z,870.86
2018-03-24T01:29:46.331Z,870.77
2018-03-24T01:30:25.306Z,870.79
2018-03-24T01:31:25.291Z,870.75
2018-03-24T01:32:46.269Z,870.71
2018-03-24T01:33:25.252Z,870.75
2018-03-24T01:34:46.241Z,870.68
2018-03-24T01:35:25.215Z,870.63
2018-03-24T01:36:25.199Z,870.64
2018-03-24T01:37:46.183Z,870.69
2018-03-24T01:38:25.167Z,870.64
2018-03-24T01:39:46.151Z,870.57
2018-03-24T01:40:25.131Z,870.58
2018-03-24T01:41:25.109Z,870.64
2018-03-24T01:42:46.091Z,870.52
2018-03-24T01:43:25.078Z,870.50
2018-03-24T01:44:46.068Z,870.46
2018-03-24T01:45:25.049Z,870.42
2018-03-24T01:46:25.031Z,870.40
2018-03-24T01:47:46.012Z,870.41
2018-03-24T01:48:24.996Z,870.44
2018-03-24T01:49:45.978Z,870.45
2018-03-24T01:50:24.960Z,870.41
2018-03-24T01:51:24.941Z,870.37
2018-03-24T01:52:45.928Z,870.35
2018-03-24T01:53:24.905Z,870.38
2018-03-24T01:54:45.890Z,870.31
2018-03-24T01:55:24.868Z,870.26
2018-03-24T01:56:24.860Z,870.28
2018-03-24T01:57:45.842Z,870.26
2018-03-24T01:58:24.818Z,870.26
2018-03-24T01:59:45.797Z,870.24
2018-03-24T02:00:24.782Z,870.21
2018-03-24T02:01:24.767Z,870.17
2018-03-24T02:02:45.744Z,870.17
2018-03-24T02:03:24.731Z,870.17
2018-03-24T02:04:45.720Z,870.11
2018-03-24T02:05:24.689Z,870.07
2018-03-24T02:06:24.677Z,870.07
2018-03-24T02:07:45.670Z,870.08
2018-03-24T02:08:24.642Z,870.06
2018-03-24T02:09:45.630Z,870.05
2018-03-24T02:10:24.612Z,870.02
2018-03-24T02:11:24.597Z,870.04
2018-03-24T02:12:45.574Z,869.99
2018-03-24T02:13:24.556Z,870.03
2018-03-24T02:14:45.540Z,870.01
2018-03-24T02:15:24.520Z,869.94
2018-03-24T02:16:24.505Z,869.92
2018-03-24T02:17:45.490Z,869.97
2018-03-24T02:18:24.470Z,869.91
2018-03-24T02:19:45.453Z,869.94
2018-03-24T02:20:24.435Z,869.91
2018-03-24T02:21:24.417Z,869.85
2018-03-24T02:22:45.400Z,869.83
2018-03-24T02:23:24.388Z,869.93
2018-03-24T02:24:45.364Z,869.84
2018-03-24T02:25:24.348Z,869.81
2018-03-24T02:26:24.330Z,869.81
2018-03-24T02:27:45.315Z,869.85
2018-03-24T02:28:24.291Z,869.83
2018-03-24T02:29:45.278Z,869.77
2018-03-24T02:30:24.255Z,869.75
2018-03-24T02:31:24.241Z,869.78
2018-03-24T02:32:45.234Z,869.77
2018-03-24T02:33:24.210Z,869.77
2018-03-24T02:34:45.192Z,869.77
2018-03-24T02:35:24.176Z,869.77
2018-03-24T02:36:24.153Z,869.77
2018-03-24T02:37:45.143Z,869.77
2018-03-24T02:38:24.114Z,869.80
2018-03-24T02:39:45.103Z,869.84
2018-03-24T02:40:24.083Z,869.85
2018-03-24T02:41:24.062Z,869.87
2018-03-24T02:42:45.050Z,869.83
2018-03-24T02:43:24.031Z,869.83
2018-03-24T02:44:45.014Z,869.87
2018-03-24T02:45:23.994Z,869.82
2018-03-24T02:46:23.977Z,869.81
2018-03-24T02:47:44.963Z,869.82
2018-03-24T02:48:23.945Z,869.82
2018-03-24T02:49:44.933Z,869.80
2018-03-24T02:50:23.912Z,869.84
2018-03-24T02:51:23.901Z,869.83
2018-03-24T02:52:44.889Z,869.82
2018-03-24T02:53:23.861Z,869.80
2018-03-24T02:54:44.838Z,869.81
2018-03-24T02:55:23.818Z,869.83
2018-03-24T02:56:23.802Z,869.82
2018-03-24T02:57:44.790Z,869.83
2018-03-24T02:58:23.773Z,869.82
2018-03-24T02:59:44.752Z,869.81
2018-03-24T03:00:23.739Z,869.81
2018-03-24T03:01:23.720Z,869.81
2018-03-24T03:02:44.703Z,869.78
2018-03-24T03:03:23.686Z,869.76
2018-03-24T03:04:44.659Z,869.79
2018-03-24T03:05:23.648Z,869.78
2018-03-24T03:06:23.629Z,869.80
2018-03-24T03:07:44.615Z,869.81
2018-03-24T03:08:23.594Z,869.83
2018-03-24T03:09:44.583Z,869.81
2018-03-24T03:10:23.561Z,869.79
2018-03-24T03:11:23.540Z,869.82
2018-03-24T03:12:44.529Z,869.81
2018-03-24T03:13:23.503Z,869.81
2018-03-24T03:14:44.488Z,869.81
2018-03-24T03:15:23.478Z,869.77
2018-03-24T03:16:23.454Z,869.82
2018-03-24T03:17:44.436Z,869.80
2018-03-24T03:18:23.418Z,869.78
2018-03-24T03:19:44.419Z,869.80
2018-03-24T03:20:23.380Z,869.79
2018-03-24T03:21:23.362Z,869.78
2018-03-24T03:22:44.348Z,869.71
2018-03-24T03:23:23.326Z,869.71
2018-03-24T03:24:44.311Z,869.69
2018-03-24T03:25:23.295Z,869.66
2018-03-24T03:26:23.274Z,869.73
2018-03-24T03:27:44.273Z,869.70
2018-03-24T03:28:23.241Z,869.69
2018-03-24T03:29:44.222Z,869.72
2018-03-24T03:30:23.205Z,869.73
2018-03-24T03:31:23.192Z,869.69
2018-03-24T03:32:44.176Z,869.76
2018-03-24T03:33:23.154Z,869.71
2018-03-24T03:34:44.136Z,869.70
2018-03-24T03:35:23.120Z,869.71
2018-03-24T03:36:23.092Z,869.69
2018-03-24T03:37:44.080Z,869.69
2018-03-24T03:38:23.060Z,869.66
2018-03-24T03:39:44.046Z,869.65
2018-03-24T03:40:23.030Z,869.66
2018-03-24T03:41:23.012Z,869.65
2018-03-24T03:42:43.996Z,869.64
2018-03-24T03:43:22.981Z,869.62
2018-03-24T03:44:43.959Z,869.60
2018-03-24T03:45:22.941Z,869.62
2018-03-24T03:46:22.920Z,869.58
2018-03-24T03:47:43.907Z,869.56
2018-03-24T03:48:22.903Z,869.53
2018-03-24T03:49:43.872Z,869.51
2018-03-24T03:50:22.851Z,869.56
2018-03-24T03:51:22.827Z,869.57
2018-03-24T03:52:43.818Z,869.50
2018-03-24T03:53:22.791Z,869.56
2018-03-24T03:54:43.780Z,869.57
2018-03-24T03:55:22.767Z,869.56
2018-03-24T03:56:22.750Z,869.56
2018-03-24T03:57:43.730Z,869.59
2018-03-24T03:58:22.705Z,869.56
2018-03-24T03:59:43.692Z,869.54
2018-03-24T04:00:22.676Z,869.56
2018-03-24T04:01:22.655Z,869.56
2018-03-24T04:02:43.643Z,869.52
2018-03-24T04:03:22.620Z,869.52
2018-03-24T04:04:43.605Z,869.52
2018-03-24T04:05:22.585Z,869.53
2018-03-24T04:06:22.566Z,869.57
2018-03-24T04:07:43.549Z,869.49
2018-03-24T04:08:22.529Z,869.45
2018-03-24T04:09:43.512Z,869.50
2018-03-24T04:10:22.496Z,869.49
2018-03-24T04:11:22.483Z,869.51
2018-03-24T04:12:43.462Z,869.58
2018-03-24T04:13:22.439Z,869.51
2018-03-24T04:14:43.420Z,869.48
2018-03-24T04:15:22.408Z,869.48
2018-03-24T04:16:22.390Z,869.50
2018-03-24T04:17:43.373Z,869.52
2018-03-24T04:18:22.352Z,869.53
2018-03-24T04:19:43.337Z,869.54
2018-03-24T04:20:22.312Z,869.54
2018-03-24T04:21:22.292Z,869.50
2018-03-24T04:22:43.284Z,869.52
2018-03-24T04:23:22.262Z,869.53
2018-03-24T04:24:43.245Z,869.50
2018-03-24T04:25:22.219Z,869.52
2018-03-24T04:26:22.205Z,869.56
2018-03-24T04:27:43.196Z,869.52
2018-03-24T04:28:22.173Z,869.53
2018-03-24T04:29:43.157Z,869.55
2018-03-24T04:30:22.137Z,869.48
2018-03-24T04:31:22.127Z,869.49
2018-03-24T04:32:43.103Z,869.48
2018-03-24T04:33:22.087Z,869.49
2018-03-24T04:34:43.071Z,869.48
2018-03-24T04:35:22.047Z,869.49
2018-03-24T04:36:22.029Z,869.46
2018-03-24T04:37:43.015Z,869.44
2018-03-24T04:38:21.984Z,869.51
2018-03-24T04:39:42.975Z,869.52
2018-03-24T04:40:21.958Z,869.47
2018-03-24T04:41:21.939Z,869.51
2018-03-24T04:42:42.925Z,869.50
2018-03-24T04:43:21.905Z,869.53
2018-03-24T04:44:42.888Z,869.54
2018-03-24T04:45:21.868Z,869.53
2018-03-24T04:46:21.845Z,869.52
2018-03-24T04:47:42.832Z,869.50
2018-03-24T04:48:21.813Z,869.53
2018-03-24T04:49:42.798Z,869.55
2018-03-24T04:50:21.773Z,869.53
2018-03-24T04:51:21.766Z,869.57
2018-03-24T04:52:42.742Z,869.52
2018-03-24T04:53:21.719Z,869.50
2018-03-24T04:54:42.706Z,869.52
2018-03-24T04:55:21.689Z,869.53
2018-03-24T04:56:21.673Z,869.50
2018-03-24T04:57:42.706Z,869.54
2018-03-24T04:58:21.635Z,869.56
2018-03-24T04:59:42.618Z,869.58
2018-03-24T05:00:21.601Z,869.57
2018-03-24T05:01:21.580Z,869.56
2018-03-24T05:02:42.566Z,869.57
2018-03-24T05:03:21.541Z,869.57
2018-03-24T05:04:42.531Z,869.58
2018-03-24T05:05:21.511Z,869.61
2018-03-24T05:06:21.494Z,869.57
2018-03-24T05:07:42.471Z,869.61
2018-03-24T05:08:21.456Z,869.57
2018-03-24T05:09:42.490Z,869.58
2018-03-24T05:10:21.418Z,869.58
2018-03-24T05:11:21.404Z,869.59
2018-03-24T05:12:42.386Z,869.58
2018-03-24T05:13:21.371Z,869.57
2018-03-24T05:14:42.351Z,869.63
2018-03-24T05:15:21.331Z,869.65
2018-03-24T05:16:21.313Z,869.64
2018-03-24T05:17:42.293Z,869.66
2018-03-24T05:18:21.280Z,869.71
2018-03-24T05:19:42.258Z,869.66
2018-03-24T05:20:21.237Z,869.68
2018-03-24T05:21:21.221Z,869.65
2018-03-24T05:22:42.203Z,869.67
2018-03-24T05:23:21.182Z,869.65
2018-03-24T05:24:42.172Z,869.66
2018-03-24T05:25:21.146Z,869.66
2018-03-24T05:26:21.134Z,869.65
2018-03-24T05:27:42.118Z,869.66
2018-03-24T05:28:21.099Z,869.63
2018-03-24T05:29:42.081Z,869.66
2018-03-24T05:30:21.057Z,869.65
2018-03-24T05:31:21.039Z,869.58
2018-03-24T05:32:42.023Z,869.59
2018-03-24T05:33:21.003Z,869.61
2018-03-24T05:34:41.990Z,869.61
2018-03-24T05:35:20.969Z,869.62
2018-03-24T05:36:20.948Z,869.65
2018-03-24T05:37:41.936Z,869.62
2018-03-24T05:38:20.918Z,869.60
2018-03-24T05:39:41.899Z,869.59
2018-03-24T05:40:20.879Z,869.62
2018-03-24T05:41:20.865Z,869.62
2018-03-24T05:42:41.841Z,869.60
2018-03-24T05:43:20.824Z,869.59
2018-03-24T05:44:41.804Z,869.59
2018-03-24T05:45:20.784Z,869.58
2018-03-24T05:46:20.773Z,869.59
2018-03-24T05:47:41.754Z,869.56
2018-03-24T05:48:20.734Z,869.61
2018-03-24T05:49:41.723Z,869.56
2018-03-24T05:50:20.702Z,869.59
2018-03-24T05:51:20.681Z,869.59
2018-03-24T05:52:41.667Z,869.52
2018-03-24T05:53:20.647Z,869.56
2018-03-24T05:54:41.628Z,869.63
2018-03-24T05:55:20.612Z,869.60
2018-03-24T05:56:20.591Z,869.56
2018-03-24T05:57:41.579Z,869.57
2018-03-24T05:58:20.555Z,869.59
2018-03-24T05:59:41.542Z,869.60
2018-03-24T06:00:20.518Z,869.59
2018-03-24T06:01:20.503Z,869.60
2018-03-24T06:02:41.483Z,869.59
2018-03-24T06:03:20.460Z,869.60
2018-03-24T06:04:41.445Z,869.64
2018-03-24T06:05:20.430Z,869.63
2018-03-24T06:06:20.404Z,869.63
2018-03-24T06:07:41.398Z,869.59
2018-03-24T06:08:20.373Z,869.59
2018-03-24T06:09:41.357Z,869.61
2018-03-24T06:10:20.337Z,869.63
2018-03-24T06:11:20.323Z,869.61
2018-03-24T06:12:41.302Z,869.65
2018-03-24T06:13:20.284Z,869.60
2018-03-24T06:14:41.266Z,869.59
2018-03-24T06:15:20.249Z,869.60
2018-03-24T06:16:20.232Z,869.60
2018-03-24T06:17:41.213Z,869.58
2018-03-24T06:18:20.197Z,869.59
2018-03-24T06:19:41.187Z,869.59
2018-03-24T06:20:20.174Z,869.61
2018-03-24T06:21:20.141Z,869.57
2018-03-24T06:22:41.123Z,869.53
2018-03-24T06:23:20.104Z,869.57
2018-03-24T06:24:41.088Z,869.53
2018-03-24T06:25:20.070Z,869.61
2018-03-24T06:26:20.050Z,869.59
2018-03-24T06:27:41.038Z,869.65
2018-03-24T06:28:20.014Z,869.62
2018-03-24T06:29:40.998Z,869.64
2018-03-24T06:30:19.973Z,869.62
2018-03-24T06:31:19.969Z,869.60
2018-03-24T06:32:40.951Z,869.70
2018-03-24T06:33:19.930Z,869.64
2018-03-24T06:34:40.907Z,869.73
2018-03-24T06:35:19.896Z,869.60
2018-03-24T06:36:19.872Z,869.64
2018-03-24T06:37:40.857Z,869.65
2018-03-24T06:38:19.835Z,869.67
2018-03-24T06:39:40.816Z,869.66
2018-03-24T06:40:19.799Z,869.63
2018-03-24T06:41:19.782Z,869.69
2018-03-24T06:42:40.768Z,869.61
2018-03-24T06:43:19.746Z,869.64
2018-03-24T06:44:40.785Z,869.63
2018-03-24T06:45:19.712Z,869.63
2018-03-24T06:46:19.698Z,869.65
2018-03-24T06:47:40.674Z,869.67
2018-03-24T06:48:19.658Z,869.72
2018-03-24T06:49:40.642Z,869.70
2018-03-24T06:50:19.620Z,869.71
2018-03-24T06:51:19.600Z,869.70
2018-03-24T06:52:40.587Z,869.67
2018-03-24T06:53:19.564Z,869.69
2018-03-24T06:54:40.550Z,869.69
2018-03-24T06:55:19.532Z,869.69
2018-03-24T06:56:19.513Z,869.66
2018-03-24T06:57:40.503Z,869.72
2018-03-24T06:58:19.482Z,869.74
2018-03-24T06:59:40.462Z,869.64
2018-03-24T07:00:19.443Z,869.69
2018-03-24T07:01:19.423Z,869.73
2018-03-24T07:02:40.405Z,869.72
2018-03-24T07:03:19.383Z,869.73
2018-03-24T07:04:40.368Z,869.72
2018-03-24T07:05:19.350Z,869.75
2018-03-24T07:06:19.332Z,869.69
2018-03-24T07:07:40.355Z,869.64
2018-03-24T07:08:19.306Z,869.73
2018-03-24T07:09:40.286Z,869.71
2018-03-24T07:10:19.267Z,869.70
2018-03-24T07:11:19.247Z,869.69
2018-03-24T07:12:40.233Z,869.73
2018-03-24T07:13:19.215Z,869.71
2018-03-24T07:14:40.201Z,869.73
2018-03-24T07:15:19.179Z,869.69
2018-03-24T07:16:19.168Z,869.71
2018-03-24T07:17:40.165Z,869.70
2018-03-24T07:18:19.127Z,869.77
2018-03-24T07:19:40.111Z,869.74
2018-03-24T07:20:19.095Z,869.72
2018-03-24T07:21:19.091Z,869.74
2018-03-24T07:22:40.063Z,869.77
2018-03-24T07:23:19.045Z,869.81
2018-03-24T07:24:40.033Z,869.80
2018-03-24T07:25:19.009Z,869.76
2018-03-24T07:26:18.997Z,869.81
2018-03-24T07:27:39.978Z,869.81
2018-03-24T07:28:18.964Z,869.80
2018-03-24T07:29:39.946Z,869.85
2018-03-24T07:30:18.924Z,869.79
2018-03-24T07:31:18.911Z,869.85
2018-03-24T07:32:39.899Z,869.87
2018-03-24T07:33:18.879Z,869.87
2018-03-24T07:34:39.866Z,869.84
2018-03-24T07:35:18.845Z,869.83
2018-03-24T07:36:18.832Z,869.83
2018-03-24T07:37:39.815Z,869.84
2018-03-24T07:38:18.798Z,869.88
2018-03-24T07:39:39.789Z,869.87
2018-03-24T07:40:18.762Z,869.91
2018-03-24T07:41:18.755Z,869.86
2018-03-24T07:42:39.737Z,869.88
2018-03-24T07:43:18.716Z,869.91
2018-03-24T07:44:39.706Z,869.97
2018-03-24T07:45:18.689Z,869.96
2018-03-24T07:46:18.674Z,869.93
2018-03-24T07:47:39.686Z,869.98
2018-03-24T07:48:18.639Z,869.94
2018-03-24T07:49:39.628Z,869.99
2018-03-24T07:50:18.616Z,869.99
2018-03-24T07:51:18.595Z,869.98
2018-03-24T07:52:39.589Z,869.95
2018-03-24T07:53:18.567Z,869.95
2018-03-24T07:54:39.553Z,870.00
2018-03-24T07:55:18.535Z,869.94
2018-03-24T07:56:18.531Z,869.96
2018-03-24T07:57:39.507Z,869.96
2018-03-24T07:58:18.489Z,869.96
2018-03-24T07:59:39.487Z,870.00
2018-03-24T08:00:18.460Z,869.97
2018-03-24T08:01:18.442Z,869.94
2018-03-24T08:02:39.432Z,870.00
2018-03-24T08:03:18.412Z,870.05
2018-03-24T08:04:39.404Z,870.02
2018-03-24T08:05:18.382Z,870.06
2018-03-24T08:06:18.372Z,870.06
2018-03-24T08:07:39.355Z,870.05
2018-03-24T08:08:18.341Z,870.02
2018-03-24T08:09:39.376Z,870.07
2018-03-24T08:10:18.310Z,870.05
2018-03-24T08:11:18.302Z,870.05
2018-03-24T08:12:39.291Z,870.06
2018-03-24T08:13:18.267Z,870.03
2018-03-24T08:14:39.258Z,870.02
2018-03-24T08:15:18.236Z,870.03
2018-03-24T08:16:18.226Z,870.00
2018-03-24T08:17:39.208Z,870.03
2018-03-24T08:18:18.202Z,870.01
2018-03-24T08:19:39.180Z,869.98
2018-03-24T08:20:18.168Z,869.99
2018-03-24T08:21:18.154Z,869.99
2018-03-24T08:22:39.145Z,869.95
2018-03-24T08:23:18.121Z,869.94
2018-03-24T08:24:39.123Z,870.00
2018-03-24T08:25:18.103Z,870.01
2018-03-24T08:26:18.083Z,870.00
2018-03-24T08:27:39.071Z,870.02
2018-03-24T08:28:18.053Z,870.01
2018-03-24T08:29:39.047Z,870.02
2018-03-24T08:30:18.029Z,870.02
2018-03-24T08:31:18.012Z,870.01
2018-03-24T08:32:39.002Z,870.03
2018-03-24T08:33:17.986Z,870.02
2018-03-24T08:34:38.976Z,869.97
2018-03-24T08:35:17.977Z,870.00
2018-03-24T08:36:17.947Z,870.00
2018-03-24T08:37:38.936Z,869.97
2018-03-24T08:38:17.934Z,869.95
2018-03-24T08:39:38.908Z,869.94
2018-03-24T08:40:17.902Z,869.96
2018-03-24T08:41:17.881Z,869.97
2018-03-24T08:42:38.871Z,869.98
2018-03-24T08:43:17.862Z,870.00
2018-03-24T08:44:38.875Z,870.03
2018-03-24T08:45:17.833Z,869.97
2018-03-24T08:46:17.819Z,869.94
2018-03-24T08:47:38.808Z,869.96
2018-03-24T08:48:17.783Z,869.93
2018-03-24T08:49:38.774Z,869.93
2018-03-24T08:50:17.758Z,869.89
2018-03-24T08:51:17.750Z,869.88
2018-03-24T08:52:38.749Z,869.88
2018-03-24T08:53:17.725Z,869.89
2018-03-24T08:54:38.719Z,869.89
2018-03-24T08:55:17.696Z,869.89
2018-03-24T08:56:17.687Z,869.91
2018-03-24T08:57:38.680Z,869.91
2018-03-24T08:58:17.661Z,869.94
2018-03-24T08:59:38.654Z,869.89
2018-03-24T09:00:17.639Z,869.94
2018-03-24T09:01:17.620Z,869.90
2018-03-24T09:02:38.615Z,869.91
2018-03-24T09:03:17.605Z,869.93
2018-03-24T09:04:38.591Z,869.93
2018-03-24T09:05:17.576Z,869.93
2018-03-24T09:06:17.560Z,869.94
2018-03-24T09:07:38.554Z,869.94
2018-03-24T09:08:17.536Z,869.90
2018-03-24T09:09:38.530Z,869.91
2018-03-24T09:10:17.510Z,869.90
2018-03-24T09:11:17.497Z,869.91
2018-03-24T09:12:38.488Z,869.90
2018-03-24T09:13:17.479Z,869.89
2018-03-24T09:14:38.461Z,869.87
2018-03-24T09:15:17.447Z,869.90
2018-03-24T09:16:17.433Z,869.93
2018-03-24T09:17:38.431Z,869.91
2018-03-24T09:18:17.411Z,869.90
2018-03-24T09:19:38.410Z,869.89
2018-03-24T09:20:17.390Z,869.91
2018-03-24T09:21:17.379Z,869.91
2018-03-24T09:22:38.375Z,869.93
2018-03-24T09:23:17.357Z,869.95
2018-03-24T09:24:38.343Z,869.95
2018-03-24T09:25:17.332Z,869.92
2018-03-24T09:26:17.315Z,869.88
2018-03-24T09:27:38.313Z,869.87
2018-03-24T09:28:17.294Z,869.91
2018-03-24T09:29:38.287Z,869.90
2018-03-24T09:30:17.267Z,869.89
2018-03-24T09:31:17.261Z,869.90
2018-03-24T09:32:38.256Z,869.97
2018-03-24T09:33:17.236Z,869.95
2018-03-24T09:34:38.229Z,869.89
2018-03-24T09:35:17.214Z,869.92
2018-03-24T09:36:17.207Z,869.91
2018-03-24T09:37:38.198Z,869.93
2018-03-24T09:38:17.185Z,869.94
2018-03-24T09:39:38.176Z,869.95
2018-03-24T09:40:17.159Z,870.00
2018-03-24T09:41:17.152Z,869.99
2018-03-24T09:42:38.137Z,869.99
2018-03-24T09:43:17.123Z,869.97
2018-03-24T09:44:38.117Z,869.95
2018-03-24T09:45:17.103Z,869.99
2018-03-24T09:46:17.084Z,869.98
2018-03-24T09:47:38.085Z,870.02
2018-03-24T09:48:17.070Z,870.01
2018-03-24T09:49:38.065Z,870.01
2018-03-24T09:50:17.045Z,869.99
2018-03-24T09:51:17.038Z,869.98
2018-03-24T09:52:38.033Z,870.00
2018-03-24T09:53:17.021Z,870.00
2018-03-24T09:54:38.012Z,869.98
2018-03-24T09:55:16.993Z,870.02
2018-03-24T09:56:16.983Z,869.98
2018-03-24T09:57:37.974Z,869.97
2018-03-24T09:58:16.961Z,869.99
2018-03-24T09:59:37.956Z,870.00
2018-03-24T10:00:16.942Z,870.02
2018-03-24T10:01:16.936Z,870.02
2018-03-24T10:02:37.929Z,870.08
2018-03-24T10:03:16.914Z,870.07
2018-03-24T10:04:37.908Z,870.06
2018-03-24T10:05:16.922Z,870.12
2018-03-24T10:06:16.876Z,870.11
2018-03-24T10:07:37.873Z,870.12
2018-03-24T10:08:16.858Z,870.07
2018-03-24T10:09:37.856Z,870.06
2018-03-24T10:10:16.836Z,870.08
2018-03-24T10:11:16.827Z,870.08
2018-03-24T10:12:37.825Z,870.13
2018-03-24T10:13:16.807Z,870.10
2018-03-24T10:14:37.799Z,870.13
2018-03-24T10:15:16.792Z,870.10
2018-03-24T10:16:16.779Z,870.09
2018-03-24T10:17:37.774Z,870.10
2018-03-24T10:18:16.756Z,870.06
2018-03-24T10:19:37.751Z,870.07
2018-03-24T10:20:16.736Z,870.05
2018-03-24T10:21:16.728Z,870.09
2018-03-24T10:22:37.726Z,870.08
2018-03-24T10:23:16.707Z,870.09
2018-03-24T10:24:37.705Z,870.06
2018-03-24T10:25:16.689Z,870.06
2018-03-24T10:26:16.675Z,870.08
2018-03-24T10:27:37.673Z,870.08
2018-03-24T10:28:16.663Z,870.05
2018-03-24T10:29:37.674Z,870.05
2018-03-24T10:30:16.643Z,870.02
2018-03-24T10:31:16.628Z,870.03
2018-03-24T10:32:37.628Z,870.02
2018-03-24T10:33:16.616Z,870.01
2018-03-24T10:34:37.608Z,870.05
2018-03-24T10:35:16.590Z,870.01
2018-03-24T10:36:16.586Z,870.02
2018-03-24T10:37:37.579Z,870.02
2018-03-24T10:38:16.568Z,870.03
2018-03-24T10:39:37.558Z,870.06
2018-03-24T10:40:16.545Z,870.01
2018-03-24T10:41:16.535Z,870.06
2018-03-24T10:42:37.529Z,869.98
2018-03-24T10:43:16.533Z,870.07
2018-03-24T10:44:37.515Z,870.06
2018-03-24T10:45:16.504Z,870.09
2018-03-24T10:46:16.487Z,870.07
2018-03-24T10:47:37.488Z,870.01
2018-03-24T10:48:16.470Z,870.02
2018-03-24T10:49:37.468Z,870.08
2018-03-24T10:50:16.456Z,870.03
2018-03-24T10:51:16.446Z,870.03
2018-03-24T10:52:37.446Z,870.00
2018-03-24T10:53:16.430Z,870.10
2018-03-24T10:54:37.422Z,870.07
2018-03-24T10:55:16.405Z,870.08
2018-03-24T10:56:16.400Z,870.06
2018-03-24T10:57:37.400Z,870.07
2018-03-24T10:58:16.377Z,870.08
2018-03-24T10:59:37.375Z,870.06
2018-03-24T11:00:16.361Z,870.03
2018-03-24T11:01:16.355Z,870.08
2018-03-24T11:02:37.352Z,870.10
2018-03-24T11:03:16.336Z,870.06
2018-03-24T11:04:37.342Z,870.05
2018-03-24T11:05:16.316Z,870.04
2018-03-24T11:06:16.314Z,870.03
2018-03-24T11:07:37.303Z,870.03
2018-03-24T11:08:16.291Z,870.04
2018-03-24T11:09:37.285Z,870.04
2018-03-24T11:10:16.271Z,870.01
2018-03-24T11:11:16.318Z,870.01
2018-03-24T11:12:37.261Z,870.00
2018-03-24T11:13:16.245Z,870.01
2018-03-24T11:14:37.246Z,869.99
2018-03-24T11:15:16.226Z,869.99
2018-03-24T11:16:16.217Z,869.98
2018-03-24T11:17:37.217Z,869.95
2018-03-24T11:18:16.203Z,869.98
2018-03-24T11:19:37.201Z,869.97
2018-03-24T11:20:16.182Z,870.00
2018-03-24T11:21:16.174Z,869.98
2018-03-24T11:22:37.172Z,870.01
2018-03-24T11:23:16.160Z,870.02
2018-03-24T11:24:37.158Z,870.04
2018-03-24T11:25:16.147Z,870.00
2018-03-24T11:26:16.138Z,870.02
2018-03-24T11:27:37.136Z,870.01
2018-03-24T11:28:16.172Z,870.03
2018-03-24T11:29:37.111Z,870.00
2018-03-24T11:30:16.095Z,870.07
2018-03-24T11:31:16.086Z,870.02
2018-03-24T11:32:37.092Z,870.07
2018-03-24T11:33:16.074Z,869.99
2018-03-24T11:34:37.071Z,870.00
2018-03-24T11:35:16.053Z,870.00
2018-03-24T11:36:16.043Z,870.00
2018-03-24T11:37:37.043Z,869.97
2018-03-24T11:38:16.027Z,869.98
2018-03-24T11:39:37.029Z,870.04
2018-03-24T11:40:16.011Z,870.04
2018-03-24T11:41:16.007Z,870.01
2018-03-24T11:42:37.003Z,870.01
2018-03-24T11:43:15.990Z,869.98
2018-03-24T11:44:36.986Z,869.96
2018-03-24T11:45:15.972Z,869.96
2018-03-24T11:46:15.969Z,869.96
2018-03-24T11:47:36.964Z,869.98
2018-03-24T11:48:15.950Z,869.95
2018-03-24T11:49:36.950Z,869.96
2018-03-24T11:50:15.970Z,869.93
2018-03-24T11:51:15.921Z,869.94
2018-03-24T11:52:36.923Z,869.93
2018-03-24T11:53:15.903Z,869.97
2018-03-24T11:54:36.903Z,869.99
2018-03-24T11:55:15.889Z,870.03
2018-03-24T11:56:15.938Z,870.00
2018-03-24T11:57:36.881Z,869.99
2018-03-24T11:58:15.865Z,869.97
2018-03-24T11:59:36.866Z,869.97
2018-03-24T12:00:15.854Z,869.93
2018-03-24T12:01:15.857Z,869.97
2018-03-24T12:02:36.842Z,869.97
2018-03-24T12:03:15.825Z,870.02
2018-03-24T12:04:36.831Z,870.00
2018-03-24T12:05:15.815Z,870.05
2018-03-24T12:06:15.806Z,870.02
2018-03-24T12:07:36.810Z,870.00
2018-03-24T12:08:15.837Z,870.02
2018-03-24T12:09:36.787Z,869.97
2018-03-24T12:10:15.776Z,870.00
2018-03-24T12:11:15.768Z,870.03
2018-03-24T12:12:36.776Z,869.99
2018-03-24T12:13:15.762Z,870.04
2018-03-24T12:14:36.757Z,870.02
2018-03-24T12:15:15.751Z,870.01
2018-03-24T12:16:15.727Z,869.98
2018-03-24T12:17:36.731Z,870.00
2018-03-24T12:18:15.719Z,869.99
2018-03-24T12:19:36.717Z,869.98
2018-03-24T12:20:15.704Z,870.05
2018-03-24T12:21:15.697Z,870.05
2018-03-24T12:22:36.691Z,870.01
2018-03-24T12:23:15.684Z,869.99
2018-03-24T12:24:36.686Z,870.00
2018-03-24T12:25:15.664Z,870.04
2018-03-24T12:26:15.658Z,870.04
2018-03-24T12:27:36.658Z,870.07
2018-03-24T12:28:15.641Z,870.07